San Antonio — WDF9683 — position and weather

sailwx.info

Track history (hours):
 
Tides and Currents Weather Stations Pressure Air Temp Water Temp Dewpoint Dewpoint Depression Visibility Wind Speed Wind Dir Waves Ship Positions

San Antonio

Owner: Higman Barge Lines, Inc., Orange, TX. More information available from US FCC via Universal Licensing System and Coast Guard Vessel Documentation Center.

Last reported at 2017-Nov-07 15:37 UTC. Time now 2017-Nov-22 09:24 UTC.
Position N 29°29' W 094°52'.
Warning: this ship's position is 14 days out of date.

Length 20 m; draft 9 m.

Type: Towing. MMSI: 367507730.

Date/timePositionNaut miles runAvg speedWind from/ knotsBaromVisibWave heightAir tempDewpointWater temp
2017-Nov-07 15:37N 29°29' W 094°52'1 7.3
2017-Nov-07 15:30N 29°30' W 094°52'3 7.0
2017-Nov-07 15:01N 29°33' W 094°54'3 6.6
2017-Nov-07 14:31N 29°35' W 094°56'4 6.3
2017-Nov-07 13:54N 29°39' W 094°58'3 6.6
2017-Nov-07 13:30N 29°41' W 094°59'2 4.7
2017-Nov-07 13:00N 29°43' W 095°01'3 6.0
2017-Nov-07 12:31N 29°45' W 095°04'2 4.5
2017-Nov-07 12:00N 29°44' W 095°06'3 4.7
2017-Nov-07 11:23N 29°44' W 095°10'0 0.0
2017-Nov-07 10:54N 29°44' W 095°10'0 0.1
2017-Nov-07 10:28N 29°44' W 095°10'0 0.0
2017-Nov-07 09:44N 29°44' W 095°10'0 0.0
2017-Nov-07 09:00N 29°44' W 095°10'0 0.0
2017-Nov-07 08:29N 29°44' W 095°10'0 0.0
2017-Nov-07 07:59N 29°44' W 095°10'0 0.0
2017-Nov-07 07:30N 29°44' W 095°10'0 0.0
2017-Nov-07 06:58N 29°44' W 095°10'0 0.0
2017-Nov-07 06:31N 29°44' W 095°10'0 0.0
2017-Nov-07 05:50N 29°44' W 095°10'0 0.0
2017-Nov-07 05:29N 29°44' W 095°10'0 0.0
2017-Nov-07 05:00N 29°44' W 095°10'0 0.0
2017-Nov-07 03:13N 29°44' W 095°10'0 0.0
2017-Nov-07 03:00N 29°44' W 095°10'0 0.0
2017-Nov-07 02:08N 29°44' W 095°10'0 0.0
2017-Nov-07 01:59N 29°44' W 095°10'0 0.0
2017-Nov-07 01:29N 29°44' W 095°10'0 0.0
2017-Nov-07 01:00N 29°44' W 095°10'0 0.0
2017-Nov-07 00:30N 29°44' W 095°10'0 0.0
2017-Nov-07 00:00N 29°44' W 095°10'0 0.0
2017-Nov-06 23:30N 29°44' W 095°10'0 0.0
2017-Nov-06 22:54N 29°44' W 095°10'0 0.0
2017-Nov-06 20:55N 29°44' W 095°10'0 0.8
2017-Nov-06 20:28N 29°44' W 095°09'3 0.2
2017-Nov-06 01:19N 29°45' W 095°06'1 4.4
2017-Nov-06 01:00N 29°45' W 095°04'2 4.2
2017-Nov-06 00:31N 29°44' W 095°02'3 5.5
2017-Nov-06 00:00N 29°42' W 094°60'3 6.7
2017-Nov-05 23:31N 29°39' W 094°58'3 6.7
2017-Nov-05 23:00N 29°36' W 094°57'3 6.7
2017-Nov-05 22:31N 29°33' W 094°55'3 6.4
2017-Nov-05 22:00N 29°31' W 094°53'  
Track history (hours):
 
Tides and Currents Weather Stations Pressure Air Temp Water Temp Dewpoint Dewpoint Depression Visibility Wind Speed Wind Dir Waves Ship Positions

San Antonio

Owner: Higman Barge Lines, Inc., Orange, TX. More information available from US FCC via Universal Licensing System and Coast Guard Vessel Documentation Center.

Last reported at 2017-Nov-07 15:37 UTC. Time now 2017-Nov-22 09:24 UTC.
Position N 29°29' W 094°52'.
Warning: this ship's position is 14 days out of date.

Length 20 m; draft 9 m.

Type: Towing. MMSI: 367507730.

Date/timePositionNaut miles runAvg speedWind from/ knotsBaromVisibWave heightAir tempDewpointWater temp
2017-Nov-07 15:37N 29°29' W 094°52'1 7.3
2017-Nov-07 15:30N 29°30' W 094°52'3 7.0
2017-Nov-07 15:01N 29°33' W 094°54'3 6.6
2017-Nov-07 14:31N 29°35' W 094°56'4 6.3
2017-Nov-07 13:54N 29°39' W 094°58'3 6.6
2017-Nov-07 13:30N 29°41' W 094°59'2 4.7
2017-Nov-07 13:00N 29°43' W 095°01'3 6.0
2017-Nov-07 12:31N 29°45' W 095°04'2 4.5
2017-Nov-07 12:00N 29°44' W 095°06'3 4.7
2017-Nov-07 11:23N 29°44' W 095°10'0 0.0
2017-Nov-07 10:54N 29°44' W 095°10'0 0.1
2017-Nov-07 10:28N 29°44' W 095°10'0 0.0
2017-Nov-07 09:44N 29°44' W 095°10'0 0.0
2017-Nov-07 09:00N 29°44' W 095°10'0 0.0
2017-Nov-07 08:29N 29°44' W 095°10'0 0.0
2017-Nov-07 07:59N 29°44' W 095°10'0 0.0
2017-Nov-07 07:30N 29°44' W 095°10'0 0.0
2017-Nov-07 06:58N 29°44' W 095°10'0 0.0
2017-Nov-07 06:31N 29°44' W 095°10'0 0.0
2017-Nov-07 05:50N 29°44' W 095°10'0 0.0
2017-Nov-07 05:29N 29°44' W 095°10'0 0.0
2017-Nov-07 05:00N 29°44' W 095°10'0 0.0
2017-Nov-07 03:13N 29°44' W 095°10'0 0.0
2017-Nov-07 03:00N 29°44' W 095°10'0 0.0
2017-Nov-07 02:08N 29°44' W 095°10'0 0.0
2017-Nov-07 01:59N 29°44' W 095°10'0 0.0
2017-Nov-07 01:29N 29°44' W 095°10'0 0.0
2017-Nov-07 01:00N 29°44' W 095°10'0 0.0
2017-Nov-07 00:30N 29°44' W 095°10'0 0.0
2017-Nov-07 00:00N 29°44' W 095°10'0 0.0
2017-Nov-06 23:30N 29°44' W 095°10'0 0.0
2017-Nov-06 22:54N 29°44' W 095°10'0 0.0
2017-Nov-06 20:55N 29°44' W 095°10'0 0.8
2017-Nov-06 20:28N 29°44' W 095°09'3 0.2
2017-Nov-06 01:19N 29°45' W 095°06'1 4.4
2017-Nov-06 01:00N 29°45' W 095°04'2 4.2
2017-Nov-06 00:31N 29°44' W 095°02'3 5.5
2017-Nov-06 00:00N 29°42' W 094°60'3 6.7
2017-Nov-05 23:31N 29°39' W 094°58'3 6.7
2017-Nov-05 23:00N 29°36' W 094°57'3 6.7
2017-Nov-05 22:31N 29°33' W 094°55'3 6.4
2017-Nov-05 22:00N 29°31' W 094°53'  

Dump ship's entire track history